Chrisopigi Lady — A8EQ9 — position and weather

sailwx.info

Track history (hours):
 
Tides and Currents Weather Stations Pressure Air Temp Water Temp Dewpoint Dewpoint Depression Visibility Wind Speed Wind Dir Waves Ship Positions

Chrisopigi Lady

Last reported at 2017-Feb-24 21:33 UTC. Time now 2017-Feb-25 20:39 UTC.
Position N 51°11' W 005°36'.

Length 228 m; draft 8 m.

Type: Ship (hazmat cat A). MMSI: 636012314.

Date/timePositionNaut miles runAvg speedWind from/ knotsBaromVisibWave heightAir tempDewpointWater temp
2017-Feb-24 21:33N 51°11' W 005°36'1312.0
2017-Feb-24 20:26N 50°59' W 005°46'1011.9
2017-Feb-24 19:33N 50°50' W 005°53'1611.8
2017-Feb-24 18:10N 50°34' W 005°54'712.0
2017-Feb-24 17:33N 50°27' W 005°53'1212.1
2017-Feb-24 16:32N 50°14' W 005°53'1212.2
2017-Feb-24 15:33N 50°02' W 005°53'15 0.8
2017-Feb-23 21:33N 49°59' W 005°30'  
2017-Feb-19 16:30N 50°00' W 005°34'  
2017-Feb-15 23:31N 37°06' W 021°37'3411.4
2017-Feb-15 20:33N 36°41' W 022°06'1211.5
2017-Feb-15 19:33N 36°32' W 022°15'1211.7
2017-Feb-15 18:33N 36°24' W 022°24'1211.9
2017-Feb-15 17:33N 36°15' W 022°34'6911.4
2017-Feb-15 11:32N 35°23' W 023°31'  
Track history (hours):
 
Tides and Currents Weather Stations Pressure Air Temp Water Temp Dewpoint Dewpoint Depression Visibility Wind Speed Wind Dir Waves Ship Positions

Chrisopigi Lady

Last reported at 2017-Feb-24 21:33 UTC. Time now 2017-Feb-25 20:39 UTC.
Position N 51°11' W 005°36'.

Length 228 m; draft 8 m.

Type: Ship (hazmat cat A). MMSI: 636012314.

Date/timePositionNaut miles runAvg speedWind from/ knotsBaromVisibWave heightAir tempDewpointWater temp
2017-Feb-24 21:33N 51°11' W 005°36'1312.0
2017-Feb-24 20:26N 50°59' W 005°46'1011.9
2017-Feb-24 19:33N 50°50' W 005°53'1611.8
2017-Feb-24 18:10N 50°34' W 005°54'712.0
2017-Feb-24 17:33N 50°27' W 005°53'1212.1
2017-Feb-24 16:32N 50°14' W 005°53'1212.2
2017-Feb-24 15:33N 50°02' W 005°53'15 0.8
2017-Feb-23 21:33N 49°59' W 005°30'  
2017-Feb-19 16:30N 50°00' W 005°34'  
2017-Feb-15 23:31N 37°06' W 021°37'3411.4
2017-Feb-15 20:33N 36°41' W 022°06'1211.5
2017-Feb-15 19:33N 36°32' W 022°15'1211.7
2017-Feb-15 18:33N 36°24' W 022°24'1211.9
2017-Feb-15 17:33N 36°15' W 022°34'6911.4
2017-Feb-15 11:32N 35°23' W 023°31'  

Dump ship's entire track history